Terminal Aerodrome Forecast
Issued by NWS Cleveland, OH

Home | Current Version | Previous Version | Graphics & Text | Print | Product List | Glossary On
Versions: 1 2 3 4 5 6 7 8 9 10 11 12 13 14 15 16 17 18 19 20 21 22 23 24 25
000
FTUS41 KCLE 142320
TAFCLE
TAF
KCLE 142320Z 1500/1606 18004KT P6SM BKN250
     FM150800 13005KT P6SM OVC100
     FM151400 15008KT P6SM VCSH OVC035
     FM151600 16009KT 2SM -SN OVC015
     FM160300 19007KT 5SM -SN OVC015
     FM160500 20007KT 6SM -SN OVC020=

USA.gov is the U.S. government's official web portal to all federal, state and local government web resources and services.